Time;durP1;ratioP1;P1;durP2;ratioP2;P2;SDS_P1;SDS_P2;PMS_P1;PMS_P2;Temp;Humidity;BMP_temperature;BMP_pressure;BME280_temperature;BME280_humidity;BME280_pressure;Samples;Min_cycle;Max_cycle;Signal;HPM_P1;HPM_P2
2023/08/01 00:00:20;;;;;;;2.40;1.77;;;16.50;99.90;;;;;;4962128;28;20755;-56
2023/08/01 00:02:47;;;;;;;2.87;1.93;;;16.50;99.90;;;;;;4961125;28;20467;-54
2023/08/01 00:05:14;;;;;;;2.50;1.53;;;16.50;99.90;;;;;;4961436;28;20458;-57
2023/08/01 00:07:41;;;;;;;2.70;2.10;;;16.50;99.90;;;;;;4961709;28;20763;-56
2023/08/01 00:10:08;;;;;;;3.20;1.93;;;16.50;99.90;;;;;;4961892;28;20469;-58
2023/08/01 00:12:37;;;;;;;2.47;1.97;;;16.50;99.90;;;;;;4961839;28;20900;-59
2023/08/01 00:15:05;;;;;;;3.30;1.93;;;16.50;99.90;;;;;;4961854;28;20498;-56
2023/08/01 00:17:32;;;;;;;2.60;1.63;;;16.50;99.90;;;;;;4961350;28;20844;-52
2023/08/01 00:19:59;;;;;;;2.30;1.73;;;16.50;99.90;;;;;;4961428;28;20470;-54
2023/08/01 00:22:26;;;;;;;3.20;2.10;;;16.50;99.90;;;;;;4961415;28;20470;-59
2023/08/01 00:24:53;;;;;;;2.10;1.60;;;16.50;99.90;;;;;;4960705;28;20455;-58
2023/08/01 00:27:20;;;;;;;2.77;2.17;;;16.50;99.90;;;;;;4960954;28;20884;-58
2023/08/01 00:29:49;;;;;;;2.50;1.90;;;16.50;99.90;;;;;;4961229;28;20459;-55
2023/08/01 00:32:16;;;;;;;2.30;1.90;;;16.50;99.90;;;;;;4961287;28;20463;-56
2023/08/01 00:34:43;;;;;;;2.20;1.80;;;16.50;99.90;;;;;;4961874;28;20495;-59
2023/08/01 00:37:10;;;;;;;3.70;2.17;;;16.50;99.90;;;;;;4980035;28;20918;-58
2023/08/01 00:39:37;;;;;;;2.57;2.07;;;16.60;99.90;;;;;;4980302;28;20474;-59
2023/08/01 00:42:05;;;;;;;3.60;2.23;;;16.60;99.90;;;;;;4980104;28;20462;-58
2023/08/01 00:44:32;;;;;;;4.40;2.70;;;16.50;99.90;;;;;;4980500;28;20545;-58
2023/08/01 00:47:01;;;;;;;3.70;2.77;;;16.50;99.90;;;;;;4979731;28;20473;-59
2023/08/01 00:49:29;;;;;;;7.53;2.83;;;16.50;99.90;;;;;;4979450;28;20442;-58
2023/08/01 00:51:56;;;;;;;3.87;3.23;;;16.50;99.90;;;;;;4980570;28;20540;-56
2023/08/01 00:54:23;;;;;;;4.77;4.27;;;16.60;99.90;;;;;;4978548;28;20469;-58
2023/08/01 00:56:50;;;;;;;4.37;3.70;;;16.60;99.90;;;;;;4979914;28;20760;-56
2023/08/01 00:59:18;;;;;;;5.77;4.40;;;16.50;99.90;;;;;;4980101;28;20895;-59
2023/08/01 01:01:45;;;;;;;4.83;3.83;;;16.50;99.90;;;;;;4980265;28;20469;-60
2023/08/01 01:04:14;;;;;;;4.97;3.50;;;16.50;99.90;;;;;;4979740;28;20528;-57
2023/08/01 01:06:46;;;;;;;4.03;3.53;;;16.50;99.90;;;;;;4979733;28;20553;-58
2023/08/01 01:09:17;;;;;;;3.67;3.27;;;16.50;99.90;;;;;;4979695;28;20465;-58
2023/08/01 01:11:44;;;;;;;3.77;3.20;;;16.50;99.90;;;;;;4979973;28;20466;-58
2023/08/01 01:14:12;;;;;;;3.50;2.80;;;16.60;99.90;;;;;;4979497;28;20561;-59
2023/08/01 01:16:39;;;;;;;3.73;2.67;;;16.50;99.90;;;;;;4980077;28;20493;-56
2023/08/01 01:19:09;;;;;;;3.63;3.33;;;16.60;99.90;;;;;;4979471;28;20504;-58
2023/08/01 01:22:19;;;;;;;3.50;2.93;;;16.60;99.90;;;;;;4980016;28;20472;-57
2023/08/01 01:24:48;;;;;;;3.50;2.87;;;16.60;99.90;;;;;;4979745;28;20458;-58
2023/08/01 01:27:18;;;;;;;2.90;2.60;;;16.60;99.90;;;;;;4981521;28;20462;-63
2023/08/01 01:29:46;;;;;;;7.40;3.30;;;16.60;99.90;;;;;;4982784;28;20814;-62
2023/08/01 01:32:14;;;;;;;2.80;2.40;;;16.60;99.90;;;;;;4981415;28;20462;-62
2023/08/01 01:34:42;;;;;;;3.40;2.40;;;16.50;99.90;;;;;;4978721;28;20493;-63
2023/08/01 01:37:09;;;;;;;2.60;2.07;;;16.60;99.90;;;;;;4964750;28;20477;-62
2023/08/01 01:39:37;;;;;;;5.17;1.83;;;16.50;99.90;;;;;;4959954;28;20471;-62
2023/08/01 01:42:07;;;;;;;2.30;1.53;;;16.50;99.90;;;;;;4962825;28;20502;-63
2023/08/01 01:44:34;;;;;;;2.50;1.70;;;16.50;99.90;;;;;;4962965;28;20472;-62
2023/08/01 01:47:02;;;;;;;1.93;1.17;;;16.40;99.90;;;;;;4960933;28;20509;-62
2023/08/01 01:49:29;;;;;;;2.43;1.33;;;16.40;99.90;;;;;;4961597;28;20521;-61
2023/08/01 01:51:56;;;;;;;2.63;2.00;;;16.40;99.90;;;;;;4969501;28;20569;-62
2023/08/01 01:54:23;;;;;;;2.10;1.60;;;16.40;99.90;;;;;;4964870;28;20470;-62
2023/08/01 01:56:51;;;;;;;2.27;1.60;;;16.40;99.90;;;;;;4961512;28;20521;-61
2023/08/01 01:59:19;;;;;;;6.97;1.80;;;16.40;99.90;;;;;;4960254;28;20557;-62
2023/08/01 02:01:46;;;;;;;2.10;1.70;;;16.40;99.90;;;;;;4960472;28;20742;-62
2023/08/01 02:04:13;;;;;;;2.40;1.50;;;16.40;99.90;;;;;;4961449;28;20463;-61
2023/08/01 02:06:40;;;;;;;2.10;1.70;;;16.40;99.90;;;;;;4961079;28;20463;-61
2023/08/01 02:09:08;;;;;;;2.30;1.80;;;16.40;99.90;;;;;;4962524;28;20506;-62
2023/08/01 02:11:35;;;;;;;1.90;1.30;;;16.30;99.90;;;;;;4961947;28;20567;-62
2023/08/01 02:14:03;;;;;;;2.10;1.70;;;16.40;99.90;;;;;;4962547;28;20477;-61
2023/08/01 02:16:31;;;;;;;3.30;2.07;;;16.40;99.90;;;;;;4963116;28;20491;-62
2023/08/01 02:18:58;;;;;;;2.73;2.03;;;16.40;99.90;;;;;;4961582;28;20581;-62
2023/08/01 02:21:25;;;;;;;3.80;2.50;;;16.50;99.90;;;;;;4961313;28;20467;-62
2023/08/01 02:23:53;;;;;;;3.57;2.30;;;16.40;99.90;;;;;;4960541;28;20485;-61
2023/08/01 02:26:22;;;;;;;4.50;2.70;;;16.40;99.90;;;;;;4965832;28;20494;-62
2023/08/01 02:28:49;;;;;;;2.90;2.57;;;16.40;99.90;;;;;;4970356;28;20446;-61
2023/08/01 02:31:17;;;;;;;3.77;3.17;;;16.40;99.90;;;;;;4964021;28;20884;-60
2023/08/01 02:33:45;;;;;;;3.60;2.97;;;16.40;99.90;;;;;;4960452;28;20463;-62
2023/08/01 02:36:12;;;;;;;3.20;2.77;;;16.40;99.90;;;;;;4972481;28;20497;-62
2023/08/01 02:38:40;;;;;;;3.50;3.20;;;16.40;99.90;;;;;;4980633;28;20882;-62
2023/08/01 02:41:07;;;;;;;3.33;2.80;;;16.40;99.90;;;;;;4984451;28;20466;-63
2023/08/01 02:43:36;;;;;;;3.00;2.70;;;16.40;99.90;;;;;;4980792;28;20489;-63
2023/08/01 02:46:03;;;;;;;3.13;2.70;;;16.40;99.90;;;;;;4981847;28;20516;-64
2023/08/01 02:48:30;;;;;;;2.70;2.40;;;16.30;99.90;;;;;;4982510;28;20918;-62
2023/08/01 02:50:58;;;;;;;2.87;2.00;;;16.40;99.90;;;;;;4985295;28;20468;-62
2023/08/01 02:57:12;;;;;;;3.00;2.57;;;16.20;99.90;;;;;;4984244;28;20520;-62
2023/08/01 02:59:39;;;;;;;3.03;2.73;;;16.10;99.90;;;;;;4982747;28;20465;-62
2023/08/01 03:02:07;;;;;;;3.20;2.80;;;16.00;99.90;;;;;;4982621;28;20464;-62
2023/08/01 03:04:34;;;;;;;2.90;2.60;;;16.00;99.90;;;;;;4979237;28;20476;-62
2023/08/01 03:07:03;;;;;;;3.87;3.20;;;16.00;99.90;;;;;;4963907;28;20924;-62
2023/08/01 03:09:30;;;;;;;4.47;4.07;;;15.90;99.90;;;;;;4965470;28;20989;-61
2023/08/01 03:11:57;;;;;;;3.90;3.60;;;15.90;99.90;;;;;;4956913;29;20470;-61
2023/08/01 03:14:24;;;;;;;5.30;4.80;;;15.80;99.90;;;;;;4956691;29;20465;-62
2023/08/01 03:16:51;;;;;;;5.87;5.33;;;15.60;99.90;;;;;;4956771;29;20514;-62
2023/08/01 03:19:19;;;;;;;6.70;6.00;;;15.60;99.90;;;;;;4956265;28;20461;-63
2023/08/01 03:21:46;;;;;;;5.90;5.40;;;15.60;99.90;;;;;;4955162;28;20467;-62
2023/08/01 03:24:15;;;;;;;6.80;5.33;;;15.60;99.90;;;;;;4957674;29;20557;-62
2023/08/01 03:26:42;;;;;;;6.63;5.97;;;15.50;99.90;;;;;;4957778;29;20459;-63
2023/08/01 03:29:09;;;;;;;8.90;6.83;;;15.50;99.90;;;;;;4960718;29;20462;-61
2023/08/01 03:31:36;;;;;;;7.90;7.10;;;15.50;99.90;;;;;;4959241;29;20467;-62
2023/08/01 03:34:04;;;;;;;10.13;7.47;;;15.50;99.90;;;;;;4957316;29;20489;-62
2023/08/01 03:36:31;;;;;;;9.17;8.27;;;15.40;99.90;;;;;;4973558;28;20513;-62
2023/08/01 03:38:59;;;;;;;9.33;8.37;;;15.40;99.90;;;;;;4980265;28;21097;-61
2023/08/01 03:41:27;;;;;;;9.97;9.00;;;15.30;99.90;;;;;;4980947;28;20471;-62
2023/08/01 03:43:54;;;;;;;12.10;9.40;;;15.30;99.90;;;;;;4981393;28;20429;-62
2023/08/01 03:46:21;;;;;;;10.97;9.70;;;15.30;99.90;;;;;;4981686;28;20464;-61
2023/08/01 03:48:48;;;;;;;11.07;9.90;;;15.30;99.90;;;;;;4983317;28;20544;-62
2023/08/01 03:51:17;;;;;;;12.63;10.67;;;15.30;99.90;;;;;;4982553;28;20468;-62
2023/08/01 03:53:45;;;;;;;12.40;11.17;;;15.30;99.90;;;;;;4983294;28;20494;-62
2023/08/01 03:56:12;;;;;;;13.97;12.57;;;15.30;99.90;;;;;;4983452;28;20494;-62
2023/08/01 03:58:41;;;;;;;17.30;12.60;;;15.30;99.90;;;;;;4982496;28;20464;-58
2023/08/01 04:01:08;;;;;;;13.63;12.20;;;15.20;99.90;;;;;;4981154;28;20469;-59
2023/08/01 04:03:35;;;;;;;14.77;13.27;;;15.20;99.90;;;;;;4980607;28;20572;-58
2023/08/01 04:06:03;;;;;;;17.80;13.13;;;15.20;99.90;;;;;;4981123;28;20493;-59
2023/08/01 04:08:30;;;;;;;16.77;14.03;;;15.30;99.90;;;;;;4981146;28;20474;-59
2023/08/01 04:10:57;;;;;;;18.33;13.07;;;15.20;99.90;;;;;;4980543;28;20462;-59
2023/08/01 04:13:24;;;;;;;14.67;12.10;;;15.10;99.90;;;;;;4980461;28;20462;-59
2023/08/01 04:15:53;;;;;;;14.73;13.20;;;15.00;99.90;;;;;;4980800;28;20561;-59
2023/08/01 04:18:20;;;;;;;15.60;13.43;;;15.00;99.90;;;;;;4979936;28;20517;-58
2023/08/01 04:20:47;;;;;;;18.27;14.00;;;15.00;99.90;;;;;;4980215;28;20469;-59
2023/08/01 04:23:14;;;;;;;17.07;13.77;;;15.00;99.90;;;;;;4980158;28;20461;-59
2023/08/01 04:25:43;;;;;;;15.20;13.67;;;15.00;99.90;;;;;;4980704;28;20867;-59
2023/08/01 04:28:10;;;;;;;17.53;14.37;;;15.00;99.90;;;;;;4980577;28;20458;-58
2023/08/01 04:30:38;;;;;;;17.07;13.10;;;14.90;99.90;;;;;;4980841;28;20468;-59
2023/08/01 04:33:06;;;;;;;18.07;14.30;;;14.80;99.90;;;;;;4980132;28;20487;-59
2023/08/01 04:35:33;;;;;;;20.23;13.60;;;14.80;99.90;;;;;;4972502;28;20454;-59
2023/08/01 04:38:00;;;;;;;13.83;12.43;;;14.90;99.90;;;;;;4969901;28;20469;-58
2023/08/01 04:40:27;;;;;;;20.03;15.27;;;14.90;99.90;;;;;;4980447;28;20565;-58
2023/08/01 04:42:54;;;;;;;18.77;13.70;;;14.90;99.90;;;;;;4980302;28;20461;-59
2023/08/01 04:45:21;;;;;;;16.17;14.00;;;14.90;99.90;;;;;;4980481;28;20525;-59
2023/08/01 04:47:48;;;;;;;16.80;14.37;;;14.90;99.90;;;;;;4979376;28;20461;-59
2023/08/01 04:50:17;;;;;;;16.97;13.30;;;14.90;99.90;;;;;;4979621;28;20466;-61
2023/08/01 04:52:44;;;;;;;17.20;15.17;;;14.90;99.90;;;;;;4975894;28;20433;-58
2023/08/01 04:55:11;;;;;;;18.60;14.93;;;15.00;99.90;;;;;;4961211;29;20437;-59
2023/08/01 04:57:38;;;;;;;17.80;14.60;;;14.90;99.90;;;;;;4959937;29;20498;-59
2023/08/01 05:00:06;;;;;;;15.50;13.10;;;14.90;99.90;;;;;;4960611;28;20571;-59
2023/08/01 05:02:33;;;;;;;17.80;14.23;;;14.90;99.90;;;;;;4960830;28;20467;-59
2023/08/01 05:05:00;;;;;;;18.70;14.70;;;15.00;99.90;;;;;;4960399;29;20471;-59
2023/08/01 05:07:29;;;;;;;21.40;14.30;;;15.00;99.90;;;;;;4960482;29;20474;-60
2023/08/01 05:09:56;;;;;;;19.83;14.00;;;15.00;99.90;;;;;;4970222;28;20895;-59
2023/08/01 05:12:23;;;;;;;17.30;15.37;;;15.00;99.90;;;;;;4977660;28;20476;-58
2023/08/01 05:14:52;;;;;;;19.30;14.33;;;14.90;99.90;;;;;;4978945;28;20462;-59
2023/08/01 05:17:19;;;;;;;18.20;14.00;;;14.90;99.90;;;;;;4979393;28;21015;-59
2023/08/01 05:19:46;;;;;;;19.27;14.53;;;15.00;99.90;;;;;;4979637;28;20813;-59
2023/08/01 05:22:13;;;;;;;19.57;15.33;;;14.90;99.90;;;;;;4979977;28;20907;-59
2023/08/01 05:24:42;;;;;;;20.57;16.50;;;14.90;99.90;;;;;;4979034;28;20461;-58
2023/08/01 05:27:09;;;;;;;20.67;16.57;;;14.90;99.90;;;;;;4979625;28;20458;-59
2023/08/01 05:29:36;;;;;;;21.60;15.97;;;14.90;99.90;;;;;;4979678;28;20468;-59
2023/08/01 05:32:04;;;;;;;18.83;15.30;;;15.00;99.90;;;;;;4979971;28;20467;-59
2023/08/01 05:34:31;;;;;;;19.07;16.27;;;15.00;99.90;;;;;;4979788;28;20864;-59
2023/08/01 05:36:58;;;;;;;18.43;16.47;;;15.10;99.90;;;;;;4979136;28;20500;-59
2023/08/01 05:39:25;;;;;;;21.47;16.20;;;15.10;99.90;;;;;;4979500;28;20465;-58
2023/08/01 05:41:54;;;;;;;20.00;17.80;;;15.10;99.90;;;;;;4979215;28;20470;-59
2023/08/01 05:44:21;;;;;;;19.80;17.20;;;15.10;99.90;;;;;;4979307;28;20465;-59
2023/08/01 05:46:48;;;;;;;25.63;18.93;;;15.10;99.90;;;;;;4978758;28;20457;-59
2023/08/01 05:49:16;;;;;;;24.30;18.23;;;15.10;99.90;;;;;;4978681;28;20440;-59
2023/08/01 05:51:43;;;;;;;19.90;16.13;;;15.00;99.90;;;;;;4978765;28;20825;-59
2023/08/01 05:54:10;;;;;;;20.70;17.03;;;15.10;99.90;;;;;;4978506;28;20472;-59
2023/08/01 05:56:37;;;;;;;19.07;16.90;;;15.00;99.90;;;;;;4979126;28;20493;-59
2023/08/01 05:59:06;;;;;;;23.10;16.90;;;14.90;99.90;;;;;;4979099;28;20461;-59
2023/08/01 06:01:33;;;;;;;23.43;17.87;;;14.90;99.90;;;;;;4978871;28;20469;-60
2023/08/01 06:04:00;;;;;;;23.03;19.27;;;15.00;99.90;;;;;;4978944;28;20517;-59
2023/08/01 06:06:27;;;;;;;23.63;17.57;;;15.00;99.90;;;;;;4978647;28;20439;-59
2023/08/01 06:08:55;;;;;;;21.40;15.80;;;15.10;99.90;;;;;;4978887;28;20446;-59
2023/08/01 06:11:23;;;;;;;17.53;15.63;;;15.10;99.90;;;;;;4978537;28;20466;-59
2023/08/01 06:13:50;;;;;;;17.40;15.50;;;15.10;99.90;;;;;;4978781;28;20819;-59
2023/08/01 06:16:19;;;;;;;18.97;16.83;;;15.10;99.90;;;;;;4978460;28;20584;-59
2023/08/01 06:18:46;;;;;;;19.93;16.70;;;15.20;99.90;;;;;;4978132;28;20809;-59
2023/08/01 06:21:13;;;;;;;22.07;16.70;;;15.30;99.90;;;;;;4978728;28;20883;-59
2023/08/01 06:23:40;;;;;;;24.23;17.10;;;15.40;99.90;;;;;;4978635;28;20741;-59
2023/08/01 06:26:07;;;;;;;18.93;15.73;;;15.40;99.90;;;;;;4977910;28;20773;-60
2023/08/01 06:28:35;;;;;;;21.33;17.10;;;15.40;99.90;;;;;;4978388;28;20482;-59
2023/08/01 06:31:02;;;;;;;19.67;15.20;;;15.40;99.90;;;;;;4978601;28;20763;-59
2023/08/01 06:33:31;;;;;;;18.03;14.50;;;15.40;99.90;;;;;;4975518;28;20470;-60
2023/08/01 06:35:58;;;;;;;19.47;15.30;;;15.30;99.90;;;;;;4963427;28;20557;-59
2023/08/01 06:38:25;;;;;;;18.03;14.20;;;15.30;99.90;;;;;;4956985;29;20444;-60
2023/08/01 06:40:53;;;;;;;23.90;14.70;;;15.30;99.90;;;;;;4957081;29;20880;-60
2023/08/01 06:43:20;;;;;;;21.03;14.30;;;15.40;99.90;;;;;;4956856;29;20466;-60
2023/08/01 06:45:47;;;;;;;17.00;13.70;;;15.40;99.90;;;;;;4956666;29;20469;-59
2023/08/01 06:48:14;;;;;;;18.47;13.33;;;15.40;99.90;;;;;;4956923;29;20753;-59
2023/08/01 06:50:43;;;;;;;16.37;14.10;;;15.30;99.90;;;;;;4955770;29;20857;-60
2023/08/01 06:53:10;;;;;;;15.43;12.90;;;15.20;99.90;;;;;;4955574;29;20573;-59
2023/08/01 06:55:38;;;;;;;19.33;12.73;;;15.20;99.90;;;;;;4955686;29;20490;-60
2023/08/01 06:58:06;;;;;;;16.03;12.80;;;15.20;99.90;;;;;;4955118;28;20482;-59
2023/08/01 07:00:33;;;;;;;17.03;12.47;;;15.20;99.90;;;;;;4956206;28;20493;-59
2023/08/01 07:03:00;;;;;;;14.80;12.33;;;15.10;99.90;;;;;;4956390;29;20458;-59
2023/08/01 07:05:28;;;;;;;18.80;13.40;;;15.20;99.90;;;;;;4957165;29;20458;-59
2023/08/01 07:07:58;;;;;;;19.67;13.27;;;15.30;99.90;;;;;;4958096;29;20463;-59
2023/08/01 07:10:25;;;;;;;18.43;13.33;;;15.40;99.90;;;;;;4958648;28;20469;-58
2023/08/01 07:12:52;;;;;;;15.97;12.10;;;15.50;99.90;;;;;;4961519;28;20756;-59
2023/08/01 07:15:19;;;;;;;17.37;11.50;;;15.70;99.90;;;;;;4962755;29;20491;-59
2023/08/01 07:17:47;;;;;;;16.53;11.13;;;15.80;99.90;;;;;;4961906;29;20506;-59
2023/08/01 07:20:14;;;;;;;12.97;11.40;;;15.80;99.90;;;;;;4962477;28;20501;-59
2023/08/01 07:22:41;;;;;;;14.90;11.17;;;15.70;99.90;;;;;;4962470;29;20880;-59
2023/08/01 07:25:11;;;;;;;13.57;10.00;;;15.70;99.90;;;;;;4962402;29;20462;-60
2023/08/01 07:27:38;;;;;;;13.10;10.10;;;15.70;99.90;;;;;;4962759;29;20529;-59
2023/08/01 07:30:07;;;;;;;11.83;9.67;;;15.70;99.90;;;;;;4962456;28;20517;-58
2023/08/01 07:32:34;;;;;;;14.10;9.80;;;15.80;99.90;;;;;;4962317;28;20470;-59
2023/08/01 07:35:02;;;;;;;13.87;10.50;;;15.80;99.90;;;;;;4966184;28;20508;-59
2023/08/01 07:37:29;;;;;;;14.67;10.33;;;15.80;99.90;;;;;;4970122;28;20487;-60
2023/08/01 07:39:56;;;;;;;13.83;10.30;;;15.90;99.90;;;;;;4961747;29;20462;-60
2023/08/01 07:42:25;;;;;;;10.27;9.03;;;16.00;99.90;;;;;;4962371;29;20758;-60
2023/08/01 07:44:52;;;;;;;17.70;10.83;;;16.00;99.90;;;;;;4962214;28;20462;-60
2023/08/01 07:47:19;;;;;;;13.43;10.63;;;16.00;99.90;;;;;;4963474;28;20467;-61
2023/08/01 07:49:47;;;;;;;13.77;9.60;;;16.10;99.90;;;;;;4964612;28;20444;-60
2023/08/01 07:52:14;;;;;;;14.00;9.80;;;16.20;99.90;;;;;;4979805;28;20830;-60
2023/08/01 07:54:41;;;;;;;10.70;8.70;;;16.20;99.90;;;;;;4980163;28;20457;-59
2023/08/01 07:57:08;;;;;;;11.03;9.93;;;16.30;99.90;;;;;;4980971;28;20747;-60
2023/08/01 07:59:37;;;;;;;13.90;9.73;;;16.30;99.90;;;;;;4980905;28;20521;-62
2023/08/01 08:02:05;;;;;;;12.83;9.20;;;16.20;99.90;;;;;;4980324;28;20572;-60
2023/08/01 08:04:32;;;;;;;14.93;10.57;;;16.30;99.90;;;;;;4980047;28;20466;-59
2023/08/01 08:07:00;;;;;;;18.20;10.37;;;16.30;99.90;;;;;;4981061;28;20486;-60
2023/08/01 08:09:28;;;;;;;10.97;9.63;;;16.20;99.90;;;;;;4981102;28;20443;-61
2023/08/01 08:11:57;;;;;;;11.57;9.40;;;16.20;99.90;;;;;;4979714;28;20484;-61
2023/08/01 08:14:24;;;;;;;12.03;9.37;;;16.20;99.90;;;;;;4979198;28;20755;-61
2023/08/01 08:16:53;;;;;;;14.07;9.70;;;16.20;99.90;;;;;;4979277;28;20490;-61
2023/08/01 08:19:20;;;;;;;15.53;10.00;;;16.30;99.90;;;;;;4977833;28;20486;-60
2023/08/01 08:21:51;;;;;;;13.17;9.33;;;16.30;99.90;;;;;;4977779;28;20464;-60
2023/08/01 08:24:18;;;;;;;11.67;9.50;;;16.20;99.90;;;;;;4977757;28;20473;-60
2023/08/01 08:26:45;;;;;;;11.90;10.03;;;16.10;99.90;;;;;;4979383;28;20549;-60
2023/08/01 08:29:13;;;;;;;14.17;9.90;;;16.10;99.90;;;;;;4979889;28;20730;-60
2023/08/01 08:31:40;;;;;;;13.80;10.97;;;16.00;99.90;;;;;;4978969;28;20545;-60
2023/08/01 08:34:09;;;;;;;14.87;11.00;;;16.10;99.90;;;;;;4979263;28;20490;-60
2023/08/01 08:36:36;;;;;;;14.43;9.60;;;16.50;99.90;;;;;;4969144;28;20462;-60
2023/08/01 08:39:04;;;;;;;12.47;9.60;;;16.90;99.90;;;;;;4967365;28;20554;-59
2023/08/01 08:41:38;;;;;;;11.63;9.27;;;17.40;99.90;;;;;;4965713;28;20548;-60
2023/08/01 08:44:09;;;;;;;13.53;8.83;;;17.40;99.90;;;;;;4970800;28;20525;-64
2023/08/01 08:46:43;;;;;;;11.30;7.87;;;17.20;99.90;;;;;;4964746;28;20470;-66
2023/08/01 08:49:15;;;;;;;14.43;8.93;;;17.00;99.90;;;;;;4963048;28;20567;-67
2023/08/01 08:51:45;;;;;;;13.40;8.10;;;16.90;99.90;;;;;;4961327;28;20470;-65
2023/08/01 08:54:12;;;;;;;11.47;9.07;;;17.30;99.90;;;;;;4961804;28;20458;-66
2023/08/01 08:56:40;;;;;;;15.00;9.10;;;17.80;99.90;;;;;;4961106;28;20462;-65
2023/08/01 08:59:10;;;;;;;9.53;7.47;;;18.20;99.90;;;;;;4960932;28;20441;-66
2023/08/01 09:01:37;;;;;;;10.47;7.60;;;18.80;99.90;;;;;;4962585;28;20549;-66
2023/08/01 09:04:05;;;;;;;7.77;6.50;;;18.60;99.90;;;;;;4984886;28;20462;-65
2023/08/01 09:06:38;;;;;;;12.17;8.70;;;18.10;69.10;;;;;;4981256;28;20480;-67
2023/08/01 09:09:11;;;;;;;9.97;8.03;;;17.70;1.00;;;;;;4980688;28;20759;-67
2023/08/01 09:11:45;;;;;;;12.50;8.20;;;17.70;99.90;;;;;;4982305;28;20458;-65
2023/08/01 09:14:13;;;;;;;12.70;7.27;;;18.00;99.90;;;;;;4982676;28;20516;-67
2023/08/01 09:16:42;;;;;;;11.53;7.77;;;18.20;99.90;;;;;;4979650;28;20509;-67
2023/08/01 09:19:10;;;;;;;7.40;6.70;;;18.10;1.00;;;;;;4935799;28;1287624;-67
2023/08/01 09:21:40;;;;;;;12.10;6.63;;;17.90;1.00;;;;;;4980508;28;20246;-67
2023/08/01 09:24:10;;;;;;;9.23;6.60;;;17.70;1.00;;;;;;4979817;28;20468;-67
2023/08/01 09:26:39;;;;;;;10.63;8.63;;;17.60;35.60;;;;;;4980100;28;20461;-68
2023/08/01 09:29:07;;;;;;;9.03;6.90;;;17.70;1.00;;;;;;4979935;28;20469;-68
2023/08/01 09:31:36;;;;;;;11.13;7.30;;;17.50;1.00;;;;;;4979981;28;20434;-67
2023/08/01 09:34:05;;;;;;;13.40;7.10;;;17.80;1.00;;;;;;4977073;28;20458;-69
2023/08/01 09:36:33;;;;;;;13.83;7.40;;;18.20;1.00;;;;;;4967143;28;20448;-66
2023/08/01 09:39:02;;;;;;;9.23;6.47;;;18.50;1.00;;;;;;4980824;28;20505;-64
2023/08/01 09:41:30;;;;;;;9.00;6.87;;;18.60;99.90;;;;;;4980662;28;20519;-70
2023/08/01 09:43:58;;;;;;;10.37;6.33;;;18.50;99.90;;;;;;4981499;28;20881;-66
2023/08/01 09:46:26;;;;;;;12.10;7.43;;;18.20;99.00;;;;;;4981147;28;20524;-66
2023/08/01 09:48:54;;;;;;;7.93;5.73;;;18.10;99.90;;;;;;4980571;28;20489;-69
2023/08/01 09:51:21;;;;;;;11.53;7.03;;;18.70;99.90;;;;;;4981015;28;20661;-67
2023/08/01 09:53:50;;;;;;;9.43;6.80;;;19.40;99.90;;;;;;4981900;28;20858;-69
2023/08/01 09:56:21;;;;;;;8.10;5.53;;;19.70;11.20;;;;;;4981744;28;20436;-68
2023/08/01 09:58:49;;;;;;;8.63;5.80;;;20.10;1.00;;;;;;4981164;28;20504;-68
2023/08/01 10:01:18;;;;;;;8.60;5.50;;;20.60;1.00;;;;;;4980458;28;20887;-66
2023/08/01 10:03:47;;;;;;;7.50;6.17;;;21.20;1.00;;;;;;4980708;28;20477;-66
2023/08/01 10:06:20;;;;;;;11.37;5.60;;;20.50;1.00;;;;;;4982151;28;20536;-67
2023/08/01 10:08:48;;;;;;;11.20;6.43;;;20.10;1.00;;;;;;4979272;28;20432;-68
2023/08/01 10:11:18;;;;;;;10.93;6.73;;;19.50;1.00;;;;;;4979609;28;20831;-68
2023/08/01 10:13:47;;;;;;;6.57;5.90;;;19.10;37.20;;;;;;4978742;28;20548;-69
2023/08/01 10:16:16;;;;;;;10.47;7.00;;;18.70;41.30;;;;;;4978617;28;20552;-69
2023/08/01 10:18:43;;;;;;;11.43;6.30;;;19.00;99.90;;;;;;4978960;28;20597;-68
2023/08/01 10:21:15;;;;;;;10.13;6.50;;;19.60;99.90;;;;;;4979747;28;20443;-68
2023/08/01 10:23:43;;;;;;;7.73;5.80;;;19.60;63.40;;;;;;4980436;28;20468;-68
2023/08/01 10:26:12;;;;;;;7.37;5.90;;;19.60;1.00;;;;;;4979218;28;20466;-68
2023/08/01 10:28:40;;;;;;;7.13;5.47;;;19.70;1.00;;;;;;4979866;28;20520;-70
2023/08/01 10:31:11;;;;;;;6.60;5.90;;;19.30;1.00;;;;;;4980162;28;20608;-68
2023/08/01 10:33:39;;;;;;;10.13;6.00;;;19.10;1.00;;;;;;4980564;28;20528;-65
2023/08/01 10:36:17;;;;;;;9.60;6.50;;;19.10;19.20;;;;;;4967684;28;20461;-67
2023/08/01 10:38:49;;;;;;;7.43;6.30;;;19.40;1.00;;;;;;4960621;28;20564;-69
2023/08/01 10:41:21;;;;;;;6.80;5.47;;;19.20;1.00;;;;;;4960687;29;20569;-67
2023/08/01 10:43:48;;;;;;;8.20;6.50;;;18.80;1.00;;;;;;4960029;29;20462;-66
2023/08/01 10:46:17;;;;;;;10.93;6.73;;;18.60;1.00;;;;;;4959927;29;20441;-67
2023/08/01 10:48:54;;;;;;;6.70;5.30;;;18.50;90.10;;;;;;4961909;29;20463;-68
2023/08/01 10:51:21;;;;;;;10.60;6.67;;;18.70;23.60;;;;;;4961770;29;20472;-67
2023/08/01 10:53:48;;;;;;;6.80;5.80;;;18.90;1.00;;;;;;4959505;29;20462;-67
2023/08/01 10:56:19;;;;;;;10.13;6.20;;;19.40;99.90;;;;;;4962835;29;20438;-67
2023/08/01 10:58:47;;;;;;;7.73;5.40;;;20.00;23.30;;;;;;4962308;29;20914;-66
2023/08/01 11:01:16;;;;;;;8.47;6.13;;;20.20;1.00;;;;;;4962154;28;20437;-65
2023/08/01 11:03:44;;;;;;;8.17;5.00;;;20.40;1.00;;;;;;4961942;29;20497;-65
2023/08/01 11:06:11;;;;;;;7.80;5.70;;;20.10;1.00;;;;;;4963464;29;20471;-66
2023/08/01 11:08:39;;;;;;;8.40;5.30;;;19.80;1.00;;;;;;4962811;29;20981;-66
2023/08/01 11:11:08;;;;;;;7.03;5.10;;;19.50;1.00;;;;;;4961226;28;20795;-66
2023/08/01 11:13:35;;;;;;;8.20;5.93;;;19.20;1.00;;;;;;4960841;29;20433;-62
2023/08/01 11:16:04;;;;;;;6.87;5.30;;;18.90;1.00;;;;;;4960863;29;20541;-65
2023/08/01 11:18:42;;;;;;;7.20;5.10;;;18.70;1.00;;;;;;4961132;29;20506;-65
2023/08/01 11:21:09;;;;;;;6.60;6.00;;;18.40;1.00;;;;;;4959023;29;20466;-62
2023/08/01 11:23:37;;;;;;;8.20;6.23;;;18.20;1.00;;;;;;4959480;28;20494;-69
2023/08/01 11:26:09;;;;;;;9.67;6.77;;;17.80;29.10;;;;;;4959247;29;20466;-73
2023/08/01 11:28:37;;;;;;;12.17;6.40;;;17.80;99.90;;;;;;4958823;28;20455;-70
2023/08/01 11:31:12;;;;;;;8.50;6.27;;;18.00;99.90;;;;;;4958852;29;20746;-70
2023/08/01 11:33:40;;;;;;;12.17;7.47;;;18.00;99.90;;;;;;4958641;28;20462;-70
2023/08/01 11:36:09;;;;;;;11.60;6.30;;;17.90;99.90;;;;;;4971491;28;20891;-68
2023/08/01 11:38:36;;;;;;;7.60;6.40;;;18.10;1.00;;;;;;4977471;28;20486;-67
2023/08/01 11:41:05;;;;;;;7.63;6.10;;;18.20;99.90;;;;;;4978416;28;20565;-67
2023/08/01 11:43:39;;;;;;;6.33;5.63;;;18.70;99.90;;;;;;4978028;28;20571;-67
2023/08/01 11:46:07;;;;;;;5.40;4.90;;;19.30;99.90;;;;;;4977903;28;20463;-68
2023/08/01 11:48:34;;;;;;;6.93;5.53;;;19.90;26.60;;;;;;4978417;28;20469;-68
2023/08/01 11:51:04;;;;;;;8.10;5.80;;;19.90;1.00;;;;;;4978974;28;20468;-68
2023/08/01 11:53:37;;;;;;;6.67;4.93;;;19.90;1.00;;;;;;4978920;28;20552;-67
2023/08/01 11:56:05;;;;;;;6.97;5.10;;;19.90;1.00;;;;;;4979540;28;20546;-67
2023/08/01 11:58:33;;;;;;;6.93;5.10;;;19.60;1.00;;;;;;4980521;28;20574;-66
2023/08/01 12:01:06;;;;;;;6.00;4.37;;;19.20;1.00;;;;;;4981551;28;20468;-67
2023/08/01 12:03:33;;;;;;;8.57;5.80;;;18.80;1.00;;;;;;4981903;28;20461;-65
2023/08/01 12:06:07;;;;;;;7.07;4.73;;;18.60;1.00;;;;;;4981891;28;20465;-65
2023/08/01 12:08:35;;;;;;;4.57;3.73;;;18.50;1.00;;;;;;4981763;28;20540;-67
2023/08/01 12:11:02;;;;;;;7.80;3.97;;;18.20;1.00;;;;;;4982208;28;20454;-65
2023/08/01 12:13:30;;;;;;;5.03;3.30;;;17.70;1.00;;;;;;4982638;28;20531;-67
2023/08/01 12:15:58;;;;;;;6.00;2.93;;;17.50;1.00;;;;;;4981575;28;20472;-66
2023/08/01 12:18:26;;;;;;;3.83;3.30;;;17.30;1.00;;;;;;4982141;28;20596;-65
2023/08/01 12:20:54;;;;;;;4.70;3.30;;;17.10;1.00;;;;;;4981456;28;20552;-64
2023/08/01 12:23:23;;;;;;;4.37;2.80;;;17.00;1.00;;;;;;4981297;28;20921;-65
2023/08/01 12:25:50;;;;;;;6.10;3.30;;;16.80;1.00;;;;;;4980627;28;20463;-69
2023/08/01 12:28:17;;;;;;;4.70;3.07;;;16.70;1.00;;;;;;4982127;28;20739;-68
2023/08/01 12:30:45;;;;;;;6.33;2.97;;;16.50;99.90;;;;;;4980428;28;20473;-67
2023/08/01 12:33:12;;;;;;;4.70;3.10;;;16.50;99.90;;;;;;4981473;28;20513;-68
2023/08/01 12:35:41;;;;;;;6.57;3.40;;;16.50;99.90;;;;;;4971650;28;20485;-68
2023/08/01 12:38:08;;;;;;;5.40;3.23;;;16.70;99.90;;;;;;4960912;28;20473;-69
2023/08/01 12:40:37;;;;;;;3.97;2.87;;;16.90;99.90;;;;;;4961807;28;20835;-69
2023/08/01 12:43:05;;;;;;;5.07;3.60;;;16.90;99.90;;;;;;4961840;28;20793;-69
2023/08/01 12:45:32;;;;;;;4.90;3.07;;;17.10;99.90;;;;;;4961336;28;20474;-68
2023/08/01 12:48:00;;;;;;;3.97;3.57;;;17.10;37.40;;;;;;4961272;28;20441;-71